»·PEaware :: SWA4042 KSAN-KBOI

SWA4042 :: KSAN-KBOI

FLIGHT INFORMATION

Flight Status: Arrived
Operator:
Southwest Airlines
More flights by this operator :: More flights under this callsign
Pilot: Daniel W. (24238)
Aircraft: BOEING 737-800
(B738)
More flights by this aircraft type
Origin: KSAN San Diego Intl-Lindbergh
United States
Destination: KBOI Boise Air Terminal/Gowen
United States
More flights between these airports :: More routes between these airports
Route: PADRZ2 EHF J5 FMG NEERO SADYL3
File this flight plan on PilotEdge
Remarks: PBN / A1D1O1S2T1 NAV / RNVD1E1A1 RNP10 DAT / 1FANSP2PDC DOF / 200108 REG / N8562Z EET / KZOA0038 KZLC0118 SEL / BPKQ CODE / ABC058 PER / C
Altitude:
(Current/Filed)
38,000ft
Speed:
(Current/Filed)
452kts
Departed: 08-Jan-20 07:15 AM
Arrived: 08-Jan-20 09:08 AM
Distance/Time
Traveled:
652nm/1:53
Distance/Time
To Go:
Arrived

Flight Plot

Page will automatically refresh every two minutes.

Flight plan parsing failed; only flown route is shown


Map Options




Map Legend


Flown Route
Filed Route
Departure Airport
Arrival Airport
Navaid (VOR, NDB)
Fix

Horizontal Profiles

Position Reports

Time Latitude Longitude Heading Altitude Ground
Speed
08-Jan-20 06:50 32.732307 -117.195908 307 23ft 0kts
08-Jan-20 06:51 32.732307 -117.195908 307 23ft 0kts
08-Jan-20 06:52 32.732307 -117.195908 307 23ft 0kts
08-Jan-20 06:53 32.732307 -117.195908 307 23ft 0kts
08-Jan-20 06:54 32.732307 -117.195908 307 23ft 0kts
08-Jan-20 06:55 32.732307 -117.195908 307 23ft 0kts
08-Jan-20 06:56 32.732307 -117.195908 307 23ft 0kts
08-Jan-20 06:57 32.732307 -117.195908 307 23ft 0kts
08-Jan-20 06:58 32.732307 -117.195908 307 23ft 0kts
08-Jan-20 06:59 32.732307 -117.195908 307 23ft 0kts
08-Jan-20 07:00 32.732307 -117.195908 307 23ft 0kts
08-Jan-20 07:01 32.732307 -117.195908 307 23ft 0kts
08-Jan-20 07:02 32.732307 -117.195908 307 23ft 0kts
08-Jan-20 07:03 32.732307 -117.195908 307 23ft 0kts
08-Jan-20 07:04 32.732307 -117.195908 307 23ft 0kts
08-Jan-20 07:05 32.732231 -117.195784 298 23ft 2kts
08-Jan-20 07:06 32.731942 -117.195027 359 23ft 2kts
08-Jan-20 07:07 32.731565 -117.195137 14 23ft 0kts
08-Jan-20 07:08 32.731565 -117.195137 14 23ft 0kts
08-Jan-20 07:09 32.733149 -117.194266 30 23ft 12kts
08-Jan-20 07:10 32.732507 -117.189604 106 23ft 16kts
08-Jan-20 07:11 32.731107 -117.183822 105 23ft 19kts
08-Jan-20 07:12 32.729673 -117.177903 106 23ft 17kts
08-Jan-20 07:13 32.730167 -117.175684 286 23ft 0kts
08-Jan-20 07:14 32.735419 -117.197331 286 239ft 160kts
08-Jan-20 07:15 32.759572 -117.249257 305 2642ft 208kts
08-Jan-20 07:16 32.797214 -117.313346 302 5103ft 260kts
08-Jan-20 07:17 32.841643 -117.383579 306 8481ft 271kts
08-Jan-20 07:19 32.888727 -117.456537 304 11327ft 296kts
08-Jan-20 07:20 32.944032 -117.542537 304 13538ft 335kts
08-Jan-20 07:21 33.001815 -117.632641 304 16570ft 347kts
08-Jan-20 07:22 33.062070 -117.724941 309 19277ft 362kts
08-Jan-20 07:23 33.139710 -117.806708 315 21687ft 378kts
08-Jan-20 07:24 33.221388 -117.889156 316 23842ft 390kts
08-Jan-20 07:25 33.300459 -117.966028 316 25585ft 400kts
08-Jan-20 07:26 33.385620 -118.048895 316 27246ft 409kts
08-Jan-20 07:27 33.474934 -118.136652 315 28631ft 420kts
08-Jan-20 07:28 33.563943 -118.222477 320 29860ft 432kts
08-Jan-20 07:29 33.671300 -118.288695 329 31576ft 434kts
08-Jan-20 07:30 33.780471 -118.348602 331 33248ft 428kts
08-Jan-20 07:31 33.890175 -118.403149 331 34679ft 425kts
08-Jan-20 07:32 33.999956 -118.455080 338 35916ft 429kts
08-Jan-20 07:33 34.119034 -118.477744 346 37043ft 435kts
08-Jan-20 07:34 34.239207 -118.496242 346 38044ft 435kts
08-Jan-20 07:35 34.359827 -118.514838 346 38070ft 433kts
08-Jan-20 07:36 34.479249 -118.533251 346 38070ft 434kts
08-Jan-20 07:37 34.599350 -118.551871 346 38071ft 434kts
08-Jan-20 07:38 34.718950 -118.570441 346 38074ft 433kts
08-Jan-20 07:38 34.818786 -118.586006 346 38084ft 433kts
08-Jan-20 07:40 34.958130 -118.607843 346 38097ft 433kts
08-Jan-20 07:41 35.062222 -118.667384 317 38113ft 414kts
08-Jan-20 07:41 35.134600 -118.740244 316 38120ft 412kts
08-Jan-20 07:43 35.235696 -118.843163 316 38157ft 412kts
08-Jan-20 07:43 35.309437 -118.917663 316 38185ft 412kts
08-Jan-20 07:45 35.411988 -119.022720 316 38215ft 411kts
08-Jan-20 07:45 35.489906 -119.090147 335 38220ft 422kts
08-Jan-20 07:46 35.607332 -119.113230 348 38224ft 430kts
08-Jan-20 07:48 35.746072 -119.131635 348 38231ft 430kts
08-Jan-20 07:48 35.845437 -119.144744 348 38234ft 430kts
08-Jan-20 07:49 35.964223 -119.160402 348 38245ft 429kts
08-Jan-20 07:50 36.082831 -119.176128 348 38248ft 426kts
08-Jan-20 07:51 36.200691 -119.191804 348 38247ft 426kts
08-Jan-20 07:52 36.318824 -119.207568 348 38246ft 426kts
08-Jan-20 07:53 36.436649 -119.223340 348 38245ft 426kts
08-Jan-20 07:54 36.554366 -119.239100 348 38241ft 426kts
08-Jan-20 07:55 36.672167 -119.254994 348 38236ft 425kts
08-Jan-20 07:56 36.789507 -119.270864 348 38230ft 425kts
08-Jan-20 07:57 36.906866 -119.286778 348 38219ft 423kts
08-Jan-20 07:58 37.024469 -119.302801 348 38209ft 423kts
08-Jan-20 07:59 37.141023 -119.318726 348 38192ft 422kts
08-Jan-20 08:00 37.257700 -119.334614 348 38173ft 420kts
08-Jan-20 08:01 37.373679 -119.350523 348 38153ft 420kts
08-Jan-20 08:02 37.489934 -119.366528 348 38109ft 419kts
08-Jan-20 08:03 37.605527 -119.382494 348 38098ft 418kts
08-Jan-20 08:04 37.720938 -119.398441 348 38109ft 417kts
08-Jan-20 08:05 37.835923 -119.414458 348 38115ft 416kts
08-Jan-20 08:06 37.950873 -119.430503 348 38120ft 415kts
08-Jan-20 08:07 38.065908 -119.446521 348 38117ft 414kts
08-Jan-20 08:08 38.180225 -119.462569 348 38111ft 414kts
08-Jan-20 08:09 38.294676 -119.478702 348 38112ft 414kts
08-Jan-20 08:10 38.409369 -119.494851 348 38111ft 414kts
08-Jan-20 08:11 38.523695 -119.511085 348 38111ft 415kts
08-Jan-20 08:12 38.639193 -119.527535 348 38111ft 416kts
08-Jan-20 08:13 38.753984 -119.543894 348 38110ft 415kts
08-Jan-20 08:14 38.869177 -119.560404 348 38109ft 416kts
08-Jan-20 08:15 38.984057 -119.576896 348 38105ft 416kts
08-Jan-20 08:16 39.099320 -119.593420 348 38099ft 416kts
08-Jan-20 08:17 39.214521 -119.610037 348 38091ft 417kts
08-Jan-20 08:18 39.330030 -119.626740 348 38096ft 416kts
08-Jan-20 08:19 39.444738 -119.643456 348 38105ft 416kts
08-Jan-20 08:20 39.560765 -119.633428 17 38111ft 438kts
08-Jan-20 08:21 39.669631 -119.560761 21 38108ft 441kts
08-Jan-20 08:22 39.777796 -119.485808 21 38105ft 442kts
08-Jan-20 08:23 39.886643 -119.410548 21 38102ft 442kts
08-Jan-20 08:24 39.995264 -119.335221 21 38100ft 442kts
08-Jan-20 08:25 40.103742 -119.259531 21 38094ft 443kts
08-Jan-20 08:26 40.212727 -119.183172 21 38091ft 444kts
08-Jan-20 08:27 40.321513 -119.106667 21 38089ft 444kts
08-Jan-20 08:28 40.430401 -119.029806 21 38083ft 445kts
08-Jan-20 08:29 40.539331 -118.952630 21 38079ft 445kts
08-Jan-20 08:30 40.648153 -118.875242 21 38075ft 445kts
08-Jan-20 08:31 40.757348 -118.797298 22 38070ft 447kts
08-Jan-20 08:32 40.866599 -118.719018 22 38065ft 447kts
08-Jan-20 08:33 40.975771 -118.640499 22 38053ft 447kts
08-Jan-20 08:34 41.084932 -118.561689 22 38037ft 447kts
08-Jan-20 08:35 41.194318 -118.482415 22 38040ft 447kts
08-Jan-20 08:36 41.303324 -118.403111 22 38037ft 448kts
08-Jan-20 08:37 41.412994 -118.323017 22 38029ft 449kts
08-Jan-20 08:38 41.522571 -118.242678 22 38020ft 449kts
08-Jan-20 08:39 41.632072 -118.162367 23 38011ft 450kts
08-Jan-20 08:40 41.741667 -118.081181 23 38001ft 450kts
08-Jan-20 08:41 41.854449 -118.012229 10 37990ft 441kts
08-Jan-20 08:42 41.973028 -117.972748 8 37978ft 439kts
08-Jan-20 08:43 42.091799 -117.933022 8 37069ft 437kts
08-Jan-20 08:44 42.209697 -117.893685 8 35689ft 435kts
08-Jan-20 08:45 42.326965 -117.854055 8 32845ft 433kts
08-Jan-20 08:46 42.438942 -117.803657 29 30617ft 429kts
08-Jan-20 08:47 42.520960 -117.685835 43 28487ft 424kts
08-Jan-20 08:48 42.594371 -117.564729 42 26516ft 407kts
08-Jan-20 08:49 42.664989 -117.447613 43 24597ft 394kts
08-Jan-20 08:50 42.733051 -117.333487 44 22716ft 382kts
08-Jan-20 08:51 42.799086 -117.222294 45 20865ft 374kts
08-Jan-20 08:52 42.863836 -117.112854 46 19037ft 368kts
08-Jan-20 08:53 42.927571 -117.004318 47 17265ft 363kts
08-Jan-20 08:54 42.989930 -116.897235 47 16061ft 356kts
08-Jan-20 08:55 43.051869 -116.790759 47 14253ft 361kts
08-Jan-20 08:56 43.113472 -116.686828 46 12609ft 338kts
08-Jan-20 08:57 43.170044 -116.591347 41 11130ft 310kts
08-Jan-20 08:58 43.242790 -116.545097 11 9919ft 282kts
08-Jan-20 08:59 43.318842 -116.515033 12 8772ft 284kts
08-Jan-20 09:00 43.393389 -116.485191 13 7646ft 275kts
08-Jan-20 09:01 43.465712 -116.457483 7 6562ft 263kts
08-Jan-20 09:02 43.535575 -116.446301 4 5817ft 239kts
08-Jan-20 09:03 43.597395 -116.416431 24 4937ft 234kts
08-Jan-20 09:04 43.610366 -116.353419 124 4297ft 172kts
08-Jan-20 09:05 43.590265 -116.302024 115 3821ft 151kts
08-Jan-20 09:06 43.572541 -116.249974 115 3028ft 149kts
08-Jan-20 09:07 43.564465 -116.224205 2 2879ft 13kts
08-Jan-20 09:08 43.566650 -116.222812 113 2879ft 12kts
08-Jan-20 09:09 43.567089 -116.220282 25 2879ft 0kts
08-Jan-20 09:10 43.567093 -116.220279 25 2879ft 0kts
08-Jan-20 09:11 43.567093 -116.220279 25 2879ft 0kts

Navigation Log

Ident Type
Flight plan parsing failed, navigation log unavailable